Map

Track Data

SID SEASON NUMBER BASIN SUBBASIN NAME ISO_TIME NATURE LAT LON WMO_WIND WMO_PRES WMO_AGENCY TRACK_TYPE DIST2LAND LANDFALL IFLAG USA_AGENCY USA_ATCF_ID USA_LAT USA_LON USA_RECORD USA_STATUS USA_WIND USA_PRES USA_SSHS USA_R34_NE USA_R34_SE USA_R34_SW USA_R34_NW USA_R50_NE USA_R50_SE USA_R50_SW USA_R50_NW USA_R64_NE USA_R64_SE USA_R64_SW USA_R64_NW USA_POCI USA_ROCI USA_RMW USA_EYE TOKYO_LAT TOKYO_LON TOKYO_GRADE TOKYO_WIND TOKYO_PRES TOKYO_R50_DIR TOKYO_R50_LONG TOKYO_R50_SHORT TOKYO_R30_DIR TOKYO_R30_LONG TOKYO_R30_SHORT TOKYO_LAND CMA_LAT CMA_LON CMA_CAT CMA_WIND CMA_PRES HKO_LAT HKO_LON HKO_CAT HKO_WIND HKO_PRES NEWDELHI_LAT NEWDELHI_LON NEWDELHI_GRADE NEWDELHI_WIND NEWDELHI_PRES NEWDELHI_CI NEWDELHI_DP NEWDELHI_POCI REUNION_LAT REUNION_LON REUNION_TYPE REUNION_WIND REUNION_PRES REUNION_TNUM REUNION_CI REUNION_RMW REUNION_R34_NE REUNION_R34_SE REUNION_R34_SW REUNION_R34_NW REUNION_R50_NE REUNION_R50_SE REUNION_R50_SW REUNION_R50_NW REUNION_R64_NE REUNION_R64_SE REUNION_R64_SW REUNION_R64_NW BOM_LAT BOM_LON BOM_TYPE BOM_WIND BOM_PRES BOM_TNUM BOM_CI BOM_RMW BOM_R34_NE BOM_R34_SE BOM_R34_SW BOM_R34_NW BOM_R50_NE BOM_R50_SE BOM_R50_SW BOM_R50_NW BOM_R64_NE BOM_R64_SE BOM_R64_SW BOM_R64_NW BOM_ROCI BOM_POCI BOM_EYE BOM_POS_METHOD BOM_PRES_METHOD NADI_LAT NADI_LON NADI_CAT NADI_WIND NADI_PRES WELLINGTON_LAT WELLINGTON_LON WELLINGTON_WIND WELLINGTON_PRES DS824_LAT DS824_LON DS824_STAGE DS824_WIND DS824_PRES TD9636_LAT TD9636_LON TD9636_STAGE TD9636_WIND TD9636_PRES TD9635_LAT TD9635_LON TD9635_WIND TD9635_PRES TD9635_ROCI NEUMANN_LAT NEUMANN_LON NEUMANN_CLASS NEUMANN_WIND NEUMANN_PRES MLC_LAT MLC_LON MLC_CLASS MLC_WIND MLC_PRES USA_GUST BOM_GUST BOM_GUST_PER REUNION_GUST REUNION_GUST_PER USA_SEAHGT USA_SEARAD_NE USA_SEARAD_SE USA_SEARAD_SW USA_SEARAD_NW STORM_SPEED STORM_DIR
1991216N12262 1991 45 EP MM GUILLERMO 1991-08-04 00:00:00 TS 12.3000 -98.4000 25 1010 hurdat_epa main 417 395 O_____________ hurdat_epa EP081991 12.3000 -98.4000 TD 25 1010 -1 12 301
1991216N12262 1991 45 EP MM GUILLERMO 1991-08-04 03:00:00 TS 12.6078 -98.9222 main 398 382 P_____________ EP081991 12.6078 -98.9222 TD 25 1009 -1 11 302
1991216N12262 1991 45 EP MM GUILLERMO 1991-08-04 06:00:00 TS 12.9000 -99.4000 25 1009 hurdat_epa main 387 370 O_____________ hurdat_epa EP081991 12.9000 -99.4000 TD 25 1009 -1 10 303
1991216N12262 1991 45 EP MM GUILLERMO 1991-08-04 09:00:00 TS 13.1648 -99.8076 main 370 362 P_____________ EP081991 13.1648 -99.8076 TD 27 1008 -1 9 303
1991216N12262 1991 45 EP MM GUILLERMO 1991-08-04 12:00:00 TS 13.4000 -100.200 30 1008 hurdat_epa main 367 357 O_____________ hurdat_epa EP081991 13.4000 -100.200 TD 30 1008 -1 9 298
1991216N12262 1991 45 EP MM GUILLERMO 1991-08-04 15:00:00 TS 13.6000 -100.650 main 363 353 P_____________ EP081991 13.6000 -100.650 TD 32 1007 -1 10 295
1991216N12262 1991 45 EP MM GUILLERMO 1991-08-04 18:00:00 TS 13.8000 -101.100 35 1007 hurdat_epa main 357 352 O_____________ hurdat_epa EP081991 13.8000 -101.100 TS 35 1007 0 9 299
1991216N12262 1991 45 EP MM GUILLERMO 1991-08-04 21:00:00 TS 14.0499 -101.500 main 358 341 P_____________ EP081991 14.0499 -101.500 TS 37 1005 0 9 303
1991216N12262 1991 45 EP MM GUILLERMO 1991-08-05 00:00:00 TS 14.3000 -101.900 40 1004 hurdat_epa main 345 334 O_____________ hurdat_epa EP081991 14.3000 -101.900 TS 40 1004 0 9 299
1991216N12262 1991 45 EP MM GUILLERMO 1991-08-05 03:00:00 TS 14.5000 -102.343 main 338 337 P_____________ EP081991 14.5000 -102.343 TS 45 1002 0 10 295
1991216N12262 1991 45 EP MM GUILLERMO 1991-08-05 06:00:00 TS 14.7000 -102.800 50 1000 hurdat_epa main 343 339 O_____________ hurdat_epa EP081991 14.7000 -102.800 TS 50 1000 0 10 298
1991216N12262 1991 45 EP MM GUILLERMO 1991-08-05 09:00:00 TS 14.9498 -103.235 main 349 330 P_____________ EP081991 14.9498 -103.235 TS 57 996 0 10 300
1991216N12262 1991 45 EP MM GUILLERMO 1991-08-05 12:00:00 TS 15.2000 -103.700 65 993 hurdat_epa main 334 327 O_____________ hurdat_epa EP081991 15.2000 -103.700 HU 65 993 1 10 296
1991216N12262 1991 45 EP MM GUILLERMO 1991-08-05 15:00:00 TS 15.4147 -104.205 main 330 324 P_____________ EP081991 15.4147 -104.205 HU 67 989 1 11 291
1991216N12262 1991 45 EP MM GUILLERMO 1991-08-05 18:00:00 TS 15.6000 -104.800 70 985 hurdat_epa main 332 331 O_____________ hurdat_epa EP081991 15.6000 -104.800 HU 70 985 1 13 285
1991216N12262 1991 45 EP MM GUILLERMO 1991-08-05 21:00:00 TS 15.7576 -105.528 main 351 351 P_____________ EP081991 15.7576 -105.528 HU 70 984 1 15 282
1991216N12262 1991 45 EP MM GUILLERMO 1991-08-06 00:00:00 TS 15.9000 -106.300 70 984 hurdat_epa main 400 400 O_____________ hurdat_epa EP081991 15.9000 -106.300 HU 70 984 1 15 282
1991216N12262 1991 45 EP MM GUILLERMO 1991-08-06 03:00:00 TS 16.0573 -107.015 main 417 417 P_____________ EP081991 16.0573 -107.015 HU 70 983 1 14 283
1991216N12262 1991 45 EP MM GUILLERMO 1991-08-06 06:00:00 TS 16.2000 -107.700 70 983 hurdat_epa main 455 455 O_____________ hurdat_epa EP081991 16.2000 -107.700 HU 70 983 1 13 281
1991216N12262 1991 45 EP MM GUILLERMO 1991-08-06 09:00:00 TS 16.3148 -108.365 main 499 499 P_____________ EP081991 16.3148 -108.365 HU 70 983 1 13 279
1991216N12262 1991 45 EP MM GUILLERMO 1991-08-06 12:00:00 TS 16.4000 -109.000 70 983 hurdat_epa main 537 537 O_____________ hurdat_epa EP081991 16.4000 -109.000 HU 70 983 1 12 277
1991216N12262 1991 45 EP MM GUILLERMO 1991-08-06 15:00:00 TS 16.4573 -109.608 main 578 578 P_____________ EP081991 16.4573 -109.608 HU 70 983 1 12 275
1991216N12262 1991 45 EP MM GUILLERMO 1991-08-06 18:00:00 TS 16.5000 -110.200 70 983 hurdat_epa main 629 629 O_____________ hurdat_epa EP081991 16.5000 -110.200 HU 70 983 1 11 274
1991216N12262 1991 45 EP MM GUILLERMO 1991-08-06 21:00:00 TS 16.5423 -110.793 main 682 682 P_____________ EP081991 16.5423 -110.793 HU 70 983 1 12 275
1991216N12262 1991 45 EP MM GUILLERMO 1991-08-07 00:00:00 TS 16.6000 -111.400 70 984 hurdat_epa main 719 718 O_____________ hurdat_epa EP081991 16.6000 -111.400 HU 70 984 1 12 277
1991216N12262 1991 45 EP MM GUILLERMO 1991-08-07 03:00:00 TS 16.6924 -112.043 main 724 724 P_____________ EP081991 16.6924 -112.042 HU 67 985 1 13 279
1991216N12262 1991 45 EP MM GUILLERMO 1991-08-07 06:00:00 TS 16.8000 -112.700 65 987 hurdat_epa main 738 738 O_____________ hurdat_epa EP081991 16.8000 -112.700 HU 65 987 1 13 279
1991216N12262 1991 45 EP MM GUILLERMO 1991-08-07 09:00:00 TS 16.8998 -113.350 main 759 759 P_____________ EP081991 16.8998 -113.350 HU 62 989 0 13 279
1991216N12262 1991 45 EP MM GUILLERMO 1991-08-07 12:00:00 TS 17.0000 -114.000 60 991 hurdat_epa main 781 781 O_____________ hurdat_epa EP081991 17.0000 -114.000 TS 60 991 0 13 279
1991216N12262 1991 45 EP MM GUILLERMO 1991-08-07 15:00:00 TS 17.1073 -114.650 main 807 807 P_____________ EP081991 17.1073 -114.650 TS 57 993 0 13 279
1991216N12262 1991 45 EP MM GUILLERMO 1991-08-07 18:00:00 TS 17.2000 -115.300 55 995 hurdat_epa main 844 844 O_____________ hurdat_epa EP081991 17.2000 -115.300 TS 55 995 0 13 277
1991216N12262 1991 45 EP MM GUILLERMO 1991-08-07 21:00:00 TS 17.2574 -115.958 main 885 885 P_____________ EP081991 17.2574 -115.958 TS 52 996 0 12 275
1991216N12262 1991 45 EP MM GUILLERMO 1991-08-08 00:00:00 TS 17.3000 -116.600 50 997 hurdat_epa main 930 930 O_____________ hurdat_epa EP081991 17.3000 -116.600 TS 50 997 0 12 274
1991216N12262 1991 45 EP MM GUILLERMO 1991-08-08 03:00:00 TS 17.3497 -117.200 main 978 970 P_____________ EP081991 17.3497 -117.200 TS 47 998 0 12 275
1991216N12262 1991 45 EP MM GUILLERMO 1991-08-08 06:00:00 TS 17.4000 -117.800 45 1000 hurdat_epa main 1007 1007 O_____________ hurdat_epa EP081991 17.4000 -117.800 TS 45 1000 0 12 275
1991216N12262 1991 45 EP MM GUILLERMO 1991-08-08 09:00:00 TS 17.4574 -118.442 main 1036 1036 P_____________ EP081991 17.4574 -118.442 TS 42 1001 0 12 275
1991216N12262 1991 45 EP MM GUILLERMO 1991-08-08 12:00:00 TS 17.5000 -119.100 40 1002 hurdat_epa main 1083 1083 O_____________ hurdat_epa EP081991 17.5000 -119.100 TS 40 1002 0 12 272
1991216N12262 1991 45 EP MM GUILLERMO 1991-08-08 15:00:00 TS 17.5071 -119.735 main 1126 1126 P_____________ EP081991 17.5071 -119.735 TS 40 1003 0 12 270
1991216N12262 1991 45 EP MM GUILLERMO 1991-08-08 18:00:00 TS 17.5000 -120.400 40 1004 hurdat_epa main 1177 1177 O_____________ hurdat_epa EP081991 17.5000 -120.400 TS 40 1004 0 13 270
1991216N12262 1991 45 EP MM GUILLERMO 1991-08-08 21:00:00 TS 17.5073 -121.127 main 1231 1231 P_____________ EP081991 17.5073 -121.127 TS 37 1004 0 14 270
1991216N12262 1991 45 EP MM GUILLERMO 1991-08-09 00:00:00 TS 17.5000 -121.900 35 1005 hurdat_epa main 1294 1294 O_____________ hurdat_epa EP081991 17.5000 -121.900 TS 35 1005 0 15 268
1991216N12262 1991 45 EP MM GUILLERMO 1991-08-09 03:00:00 TS 17.4571 -122.678 main 1359 1359 P_____________ EP081991 17.4571 -122.678 TS 35 1006 0 15 266
1991216N12262 1991 45 EP MM GUILLERMO 1991-08-09 06:00:00 TS 17.4000 -123.500 35 1007 hurdat_epa main 1433 1433 O_____________ hurdat_epa EP081991 17.4000 -123.500 TS 35 1007 0 16 267
1991216N12262 1991 45 EP MM GUILLERMO 1991-08-09 09:00:00 TS 17.3648 -124.385 main 1500 1500 P_____________ EP081991 17.3648 -124.385 TS 32 1007 -1 17 267
1991216N12262 1991 45 EP MM GUILLERMO 1991-08-09 12:00:00 TS 17.3000 -125.300 30 1008 hurdat_epa main 1570 1570 O_____________ hurdat_epa EP081991 17.3000 -125.300 TD 30 1008 -1 17 264
1991216N12262 1991 45 EP MM GUILLERMO 1991-08-09 15:00:00 TS 17.1796 -126.200 main 1641 1641 P_____________ EP081991 17.1796 -126.200 TD 30 1008 -1 17 260
1991216N12262 1991 45 EP MM GUILLERMO 1991-08-09 18:00:00 TS 17.0000 -127.100 30 1008 hurdat_epa main 1723 1723 O_____________ hurdat_epa EP081991 17.0000 -127.100 TD 30 1008 -1 18 256
1991216N12262 1991 45 EP MM GUILLERMO 1991-08-09 21:00:00 TS 16.7573 -128.015 main 1806 1806 P_____________ EP081991 16.7573 -128.015 TD 27 1008 -1 18 254
1991216N12262 1991 45 EP MM GUILLERMO 1991-08-10 00:00:00 TS 16.5000 -128.900 25 1009 hurdat_epa main 1898 1898 O_____________ hurdat_epa EP081991 16.5000 -128.900 TD 25 1009 -1 17 254
1991216N12262 1991 45 EP MM GUILLERMO 1991-08-10 03:00:00 TS 16.2996 -129.722 main 1976 1976 P_____________ EP081991 16.2996 -129.722 TD 25 1009 -1 16 255
1991216N12262 1991 45 EP MM GUILLERMO 1991-08-10 06:00:00 TS 16.1000 -130.500 25 1009 hurdat_epa main 2054 2054 O_____________ hurdat_epa EP081991 16.1000 -130.500 TD 25 1009 -1 15 253
1991216N12262 1991 45 EP MM GUILLERMO 1991-08-10 09:00:00 TS 15.8496 -131.250 main 2133 2133 P_____________ EP081991 15.8496 -131.250 TD 25 1009 -1 15 251
1991216N12262 1991 45 EP MM GUILLERMO 1991-08-10 12:00:00 TS 15.6000 -132.000 25 1009 hurdat_epa main 2212 2212 O_____________ hurdat_epa EP081991 15.6000 -132.000 TD 25 1009 -1 16 253
1991216N12262 1991 45 EP MM GUILLERMO 1991-08-10 15:00:00 TS 15.3882 -132.788 main 2292 2292 P_____________ EP081991 15.3882 -132.788 TD 25 1009 -1 16 255
1991216N12262 1991 45 EP MM GUILLERMO 1991-08-10 18:00:00 TS 15.2000 -133.600 25 1010 hurdat_epa main 2299 O_____________ hurdat_epa EP081991 15.2000 -133.600 TD 25 1010 -1 16 257

About IBTrACS Database

This database is a web-friendly format of International Best Track Archive for Climate Stewardship (IBTrACS), a global best track data archive curated by NOAA dating back to 1842.

Updated: 2021-12-08